sensor_id;sensor_type;location;lat;lon;timestamp;temperature;humidity
18998;DHT22;9632;51.018;4.284;2023-06-10T00:00:24;24.90;95.70
18998;DHT22;9632;51.018;4.284;2023-06-10T00:02:51;24.90;96.00
18998;DHT22;9632;51.018;4.284;2023-06-10T00:05:17;24.80;96.20
18998;DHT22;9632;51.018;4.284;2023-06-10T00:07:44;24.80;96.40
18998;DHT22;9632;51.018;4.284;2023-06-10T00:10:11;24.80;96.50
18998;DHT22;9632;51.018;4.284;2023-06-10T00:12:37;24.80;96.10
18998;DHT22;9632;51.018;4.284;2023-06-10T00:15:07;24.80;96.20
18998;DHT22;9632;51.018;4.284;2023-06-10T00:17:32;24.70;96.40
18998;DHT22;9632;51.018;4.284;2023-06-10T00:20:01;24.70;96.50
18998;DHT22;9632;51.018;4.284;2023-06-10T00:22:30;24.70;96.50
18998;DHT22;9632;51.018;4.284;2023-06-10T00:24:57;24.60;96.80
18998;DHT22;9632;51.018;4.284;2023-06-10T00:27:24;24.50;97.00
18998;DHT22;9632;51.018;4.284;2023-06-10T00:29:52;24.50;97.30
18998;DHT22;9632;51.018;4.284;2023-06-10T00:32:17;24.50;97.50
18998;DHT22;9632;51.018;4.284;2023-06-10T00:34:43;24.50;97.40
18998;DHT22;9632;51.018;4.284;2023-06-10T00:37:08;24.50;97.30
18998;DHT22;9632;51.018;4.284;2023-06-10T00:39:34;24.50;97.30
18998;DHT22;9632;51.018;4.284;2023-06-10T00:42:00;24.40;97.40
18998;DHT22;9632;51.018;4.284;2023-06-10T00:44:25;24.40;97.50
18998;DHT22;9632;51.018;4.284;2023-06-10T00:46:51;24.40;97.70
18998;DHT22;9632;51.018;4.284;2023-06-10T00:49:23;24.30;97.80
18998;DHT22;9632;51.018;4.284;2023-06-10T00:51:51;24.20;98.00
18998;DHT22;9632;51.018;4.284;2023-06-10T00:54:17;24.20;98.20
18998;DHT22;9632;51.018;4.284;2023-06-10T00:56:43;24.20;98.50
18998;DHT22;9632;51.018;4.284;2023-06-10T00:59:09;24.10;98.70
18998;DHT22;9632;51.018;4.284;2023-06-10T01:01:35;24.10;98.70
18998;DHT22;9632;51.018;4.284;2023-06-10T01:04:03;24.10;98.70
18998;DHT22;9632;51.018;4.284;2023-06-10T01:06:36;24.10;98.90
18998;DHT22;9632;51.018;4.284;2023-06-10T01:11:47;23.90;99.10
18998;DHT22;9632;51.018;4.284;2023-06-10T01:14:14;23.90;99.20
18998;DHT22;9632;51.018;4.284;2023-06-10T01:16:42;23.90;99.30
18998;DHT22;9632;51.018;4.284;2023-06-10T01:19:11;23.90;99.40
18998;DHT22;9632;51.018;4.284;2023-06-10T01:21:38;23.90;99.30
18998;DHT22;9632;51.018;4.284;2023-06-10T01:24:04;23.90;99.40
18998;DHT22;9632;51.018;4.284;2023-06-10T01:26:34;23.90;99.60
18998;DHT22;9632;51.018;4.284;2023-06-10T01:29:03;23.80;99.80
18998;DHT22;9632;51.018;4.284;2023-06-10T01:32:01;23.80;99.90
18998;DHT22;9632;51.018;4.284;2023-06-10T01:34:23;23.70;99.90
18998;DHT22;9632;51.018;4.284;2023-06-10T01:36:50;23.70;99.90
18998;DHT22;9632;51.018;4.284;2023-06-10T01:39:17;23.80;99.90
18998;DHT22;9632;51.018;4.284;2023-06-10T01:41:47;23.70;99.90
18998;DHT22;9632;51.018;4.284;2023-06-10T01:44:20;23.70;99.90
18998;DHT22;9632;51.018;4.284;2023-06-10T01:46:46;23.60;99.90
18998;DHT22;9632;51.018;4.284;2023-06-10T01:49:12;23.60;99.90
18998;DHT22;9632;51.018;4.284;2023-06-10T01:51:38;23.60;99.90
18998;DHT22;9632;51.018;4.284;2023-06-10T01:54:04;23.50;99.90
18998;DHT22;9632;51.018;4.284;2023-06-10T01:56:30;23.50;99.90
18998;DHT22;9632;51.018;4.284;2023-06-10T01:58:56;23.40;99.90
18998;DHT22;9632;51.018;4.284;2023-06-10T02:01:25;23.40;99.90
18998;DHT22;9632;51.018;4.284;2023-06-10T02:03:51;23.40;99.90
18998;DHT22;9632;51.018;4.284;2023-06-10T02:06:17;23.30;99.90
18998;DHT22;9632;51.018;4.284;2023-06-10T02:08:42;23.30;99.90
18998;DHT22;9632;51.018;4.284;2023-06-10T02:11:08;23.20;99.90
18998;DHT22;9632;51.018;4.284;2023-06-10T02:13:34;23.20;99.90
18998;DHT22;9632;51.018;4.284;2023-06-10T02:16:00;23.20;99.90
18998;DHT22;9632;51.018;4.284;2023-06-10T02:18:27;23.10;99.90
18998;DHT22;9632;51.018;4.284;2023-06-10T02:20:53;23.10;99.90
18998;DHT22;9632;51.018;4.284;2023-06-10T02:23:19;23.10;99.90
18998;DHT22;9632;51.018;4.284;2023-06-10T02:25:45;23.00;99.90
18998;DHT22;9632;51.018;4.284;2023-06-10T02:28:13;23.00;99.90
18998;DHT22;9632;51.018;4.284;2023-06-10T02:30:40;23.00;99.90
18998;DHT22;9632;51.018;4.284;2023-06-10T02:33:06;23.00;99.90
18998;DHT22;9632;51.018;4.284;2023-06-10T02:35:36;22.90;99.90
18998;DHT22;9632;51.018;4.284;2023-06-10T02:38:02;22.90;99.90
18998;DHT22;9632;51.018;4.284;2023-06-10T02:40:27;22.90;99.90
18998;DHT22;9632;51.018;4.284;2023-06-10T02:42:53;22.90;99.90
18998;DHT22;9632;51.018;4.284;2023-06-10T02:45:19;22.90;99.90
18998;DHT22;9632;51.018;4.284;2023-06-10T02:47:44;22.90;99.90
18998;DHT22;9632;51.018;4.284;2023-06-10T02:50:10;22.80;99.90
18998;DHT22;9632;51.018;4.284;2023-06-10T02:52:37;22.80;99.90
18998;DHT22;9632;51.018;4.284;2023-06-10T02:55:03;22.90;99.90
18998;DHT22;9632;51.018;4.284;2023-06-10T02:57:28;22.90;99.90
18998;DHT22;9632;51.018;4.284;2023-06-10T02:59:54;22.90;99.90
18998;DHT22;9632;51.018;4.284;2023-06-10T03:02:20;22.90;99.90
18998;DHT22;9632;51.018;4.284;2023-06-10T03:04:45;22.90;99.90
18998;DHT22;9632;51.018;4.284;2023-06-10T03:07:11;22.90;99.90
18998;DHT22;9632;51.018;4.284;2023-06-10T03:09:37;22.80;99.90
18998;DHT22;9632;51.018;4.284;2023-06-10T03:15:25;22.80;99.90
18998;DHT22;9632;51.018;4.284;2023-06-10T03:17:51;22.70;99.90
18998;DHT22;9632;51.018;4.284;2023-06-10T03:20:16;22.70;99.90
18998;DHT22;9632;51.018;4.284;2023-06-10T03:22:42;22.60;99.90
18998;DHT22;9632;51.018;4.284;2023-06-10T03:25:08;22.50;99.90
18998;DHT22;9632;51.018;4.284;2023-06-10T03:27:39;22.50;99.90
18998;DHT22;9632;51.018;4.284;2023-06-10T03:30:06;22.50;99.90
18998;DHT22;9632;51.018;4.284;2023-06-10T03:32:32;22.40;99.90
18998;DHT22;9632;51.018;4.284;2023-06-10T03:34:58;22.40;99.90
18998;DHT22;9632;51.018;4.284;2023-06-10T03:37:24;22.40;99.90
18998;DHT22;9632;51.018;4.284;2023-06-10T03:39:50;22.40;99.90
18998;DHT22;9632;51.018;4.284;2023-06-10T03:42:16;22.40;99.90
18998;DHT22;9632;51.018;4.284;2023-06-10T03:44:41;22.40;99.90
18998;DHT22;9632;51.018;4.284;2023-06-10T03:47:07;22.40;99.90
18998;DHT22;9632;51.018;4.284;2023-06-10T03:49:32;22.40;99.90
18998;DHT22;9632;51.018;4.284;2023-06-10T03:51:58;22.30;99.90
18998;DHT22;9632;51.018;4.284;2023-06-10T03:54:24;22.40;99.90
18998;DHT22;9632;51.018;4.284;2023-06-10T03:56:50;22.30;99.90
18998;DHT22;9632;51.018;4.284;2023-06-10T03:59:16;22.30;99.90
18998;DHT22;9632;51.018;4.284;2023-06-10T04:01:42;22.40;99.90
18998;DHT22;9632;51.018;4.284;2023-06-10T04:04:09;22.30;99.90
18998;DHT22;9632;51.018;4.284;2023-06-10T04:06:35;22.40;99.90
18998;DHT22;9632;51.018;4.284;2023-06-10T04:09:02;22.40;99.90
18998;DHT22;9632;51.018;4.284;2023-06-10T04:11:28;22.50;99.90
18998;DHT22;9632;51.018;4.284;2023-06-10T04:13:54;22.50;99.90
18998;DHT22;9632;51.018;4.284;2023-06-10T04:16:20;22.60;99.90
18998;DHT22;9632;51.018;4.284;2023-06-10T04:18:46;22.70;99.90
18998;DHT22;9632;51.018;4.284;2023-06-10T04:21:12;22.80;99.90
18998;DHT22;9632;51.018;4.284;2023-06-10T04:23:38;22.90;99.90
18998;DHT22;9632;51.018;4.284;2023-06-10T04:26:04;22.90;99.90
18998;DHT22;9632;51.018;4.284;2023-06-10T04:28:31;23.00;99.90
18998;DHT22;9632;51.018;4.284;2023-06-10T04:30:56;23.00;99.90
18998;DHT22;9632;51.018;4.284;2023-06-10T04:33:23;23.10;99.90
18998;DHT22;9632;51.018;4.284;2023-06-10T04:35:49;23.10;99.90
18998;DHT22;9632;51.018;4.284;2023-06-10T04:38:15;23.20;99.90
18998;DHT22;9632;51.018;4.284;2023-06-10T04:40:41;23.30;99.90
18998;DHT22;9632;51.018;4.284;2023-06-10T04:43:06;23.40;99.90
18998;DHT22;9632;51.018;4.284;2023-06-10T04:45:32;23.40;99.90
18998;DHT22;9632;51.018;4.284;2023-06-10T04:47:58;23.50;99.90
18998;DHT22;9632;51.018;4.284;2023-06-10T04:50:23;23.60;99.90
18998;DHT22;9632;51.018;4.284;2023-06-10T04:52:49;23.70;99.90
18998;DHT22;9632;51.018;4.284;2023-06-10T04:55:15;23.80;99.90
18998;DHT22;9632;51.018;4.284;2023-06-10T04:57:41;23.90;99.90
18998;DHT22;9632;51.018;4.284;2023-06-10T05:00:07;24.00;99.90
18998;DHT22;9632;51.018;4.284;2023-06-10T05:02:34;24.20;99.90
18998;DHT22;9632;51.018;4.284;2023-06-10T05:05:00;24.30;99.90
18998;DHT22;9632;51.018;4.284;2023-06-10T05:07:26;24.40;99.90
18998;DHT22;9632;51.018;4.284;2023-06-10T05:09:51;24.40;99.90
18998;DHT22;9632;51.018;4.284;2023-06-10T05:12:17;24.50;99.90
18998;DHT22;9632;51.018;4.284;2023-06-10T05:14:43;24.50;99.90
18998;DHT22;9632;51.018;4.284;2023-06-10T05:17:10;24.60;99.90
18998;DHT22;9632;51.018;4.284;2023-06-10T05:19:35;24.70;99.90
18998;DHT22;9632;51.018;4.284;2023-06-10T05:22:02;24.80;99.90
18998;DHT22;9632;51.018;4.284;2023-06-10T05:24:28;24.90;99.90
18998;DHT22;9632;51.018;4.284;2023-06-10T05:26:54;25.00;99.90
18998;DHT22;9632;51.018;4.284;2023-06-10T05:29:20;25.10;99.90
18998;DHT22;9632;51.018;4.284;2023-06-10T05:31:45;25.20;99.90
18998;DHT22;9632;51.018;4.284;2023-06-10T05:34:11;25.20;99.90
18998;DHT22;9632;51.018;4.284;2023-06-10T05:36:37;25.30;99.90
18998;DHT22;9632;51.018;4.284;2023-06-10T05:39:03;25.30;99.90
18998;DHT22;9632;51.018;4.284;2023-06-10T05:41:28;25.40;99.90
18998;DHT22;9632;51.018;4.284;2023-06-10T05:43:54;25.30;99.90
18998;DHT22;9632;51.018;4.284;2023-06-10T05:46:20;25.30;99.90
18998;DHT22;9632;51.018;4.284;2023-06-10T05:48:46;25.40;99.90
18998;DHT22;9632;51.018;4.284;2023-06-10T05:51:11;25.50;99.90
18998;DHT22;9632;51.018;4.284;2023-06-10T05:53:37;25.50;99.90
18998;DHT22;9632;51.018;4.284;2023-06-10T05:56:04;25.60;99.90
18998;DHT22;9632;51.018;4.284;2023-06-10T05:58:29;25.60;99.90
18998;DHT22;9632;51.018;4.284;2023-06-10T06:00:55;25.70;99.90
18998;DHT22;9632;51.018;4.284;2023-06-10T06:03:21;25.80;99.90
18998;DHT22;9632;51.018;4.284;2023-06-10T06:05:47;25.80;99.90
18998;DHT22;9632;51.018;4.284;2023-06-10T06:08:12;25.80;99.90
18998;DHT22;9632;51.018;4.284;2023-06-10T06:10:46;25.80;99.90
18998;DHT22;9632;51.018;4.284;2023-06-10T06:13:13;25.90;99.90
18998;DHT22;9632;51.018;4.284;2023-06-10T06:15:39;26.00;99.90
18998;DHT22;9632;51.018;4.284;2023-06-10T06:18:04;26.10;99.90
18998;DHT22;9632;51.018;4.284;2023-06-10T06:20:33;26.00;99.90
18998;DHT22;9632;51.018;4.284;2023-06-10T06:22:58;26.00;99.90
18998;DHT22;9632;51.018;4.284;2023-06-10T06:25:24;26.10;99.90
18998;DHT22;9632;51.018;4.284;2023-06-10T06:27:49;26.10;99.90
18998;DHT22;9632;51.018;4.284;2023-06-10T06:30:15;26.10;99.90
18998;DHT22;9632;51.018;4.284;2023-06-10T06:32:41;26.00;99.90
18998;DHT22;9632;51.018;4.284;2023-06-10T06:35:07;25.90;99.90
18998;DHT22;9632;51.018;4.284;2023-06-10T06:37:33;26.00;99.90
18998;DHT22;9632;51.018;4.284;2023-06-10T06:40:00;26.00;99.90
18998;DHT22;9632;51.018;4.284;2023-06-10T06:42:25;26.10;99.90
18998;DHT22;9632;51.018;4.284;2023-06-10T06:44:51;26.30;99.90
18998;DHT22;9632;51.018;4.284;2023-06-10T06:47:17;26.30;99.90
18998;DHT22;9632;51.018;4.284;2023-06-10T06:49:48;26.40;99.90
18998;DHT22;9632;51.018;4.284;2023-06-10T06:52:15;26.60;99.90
18998;DHT22;9632;51.018;4.284;2023-06-10T06:54:41;26.60;99.90
18998;DHT22;9632;51.018;4.284;2023-06-10T06:57:06;26.70;99.90
18998;DHT22;9632;51.018;4.284;2023-06-10T06:59:32;26.80;99.90
18998;DHT22;9632;51.018;4.284;2023-06-10T07:01:58;26.80;99.90
18998;DHT22;9632;51.018;4.284;2023-06-10T07:04:24;27.00;99.90
18998;DHT22;9632;51.018;4.284;2023-06-10T07:06:50;27.10;99.90
18998;DHT22;9632;51.018;4.284;2023-06-10T07:09:16;27.30;99.90
18998;DHT22;9632;51.018;4.284;2023-06-10T07:11:42;27.40;99.90
18998;DHT22;9632;51.018;4.284;2023-06-10T07:14:08;27.50;99.90
18998;DHT22;9632;51.018;4.284;2023-06-10T07:16:34;27.70;99.90
18998;DHT22;9632;51.018;4.284;2023-06-10T07:18:59;27.80;99.90
18998;DHT22;9632;51.018;4.284;2023-06-10T07:21:25;28.00;99.90
18998;DHT22;9632;51.018;4.284;2023-06-10T07:23:50;28.00;99.90
18998;DHT22;9632;51.018;4.284;2023-06-10T07:26:21;28.10;99.90
18998;DHT22;9632;51.018;4.284;2023-06-10T07:28:47;28.20;99.90
18998;DHT22;9632;51.018;4.284;2023-06-10T07:31:13;28.30;99.90
18998;DHT22;9632;51.018;4.284;2023-06-10T07:33:38;28.30;99.90
18998;DHT22;9632;51.018;4.284;2023-06-10T07:36:05;28.40;99.90
18998;DHT22;9632;51.018;4.284;2023-06-10T07:38:31;28.50;99.90
18998;DHT22;9632;51.018;4.284;2023-06-10T07:40:57;28.50;99.90
18998;DHT22;9632;51.018;4.284;2023-06-10T07:43:23;28.40;99.90
18998;DHT22;9632;51.018;4.284;2023-06-10T07:45:49;28.40;99.90
18998;DHT22;9632;51.018;4.284;2023-06-10T07:48:15;28.40;99.90
18998;DHT22;9632;51.018;4.284;2023-06-10T07:50:40;28.40;99.90
18998;DHT22;9632;51.018;4.284;2023-06-10T07:53:06;28.50;99.90
18998;DHT22;9632;51.018;4.284;2023-06-10T07:55:32;28.50;99.90
18998;DHT22;9632;51.018;4.284;2023-06-10T07:57:57;28.70;99.90
18998;DHT22;9632;51.018;4.284;2023-06-10T08:00:23;28.80;99.90
18998;DHT22;9632;51.018;4.284;2023-06-10T08:02:49;28.90;99.90
18998;DHT22;9632;51.018;4.284;2023-06-10T08:05:16;29.10;99.90
18998;DHT22;9632;51.018;4.284;2023-06-10T08:07:42;29.30;99.90
18998;DHT22;9632;51.018;4.284;2023-06-10T08:10:08;29.60;99.90
18998;DHT22;9632;51.018;4.284;2023-06-10T08:12:34;29.60;99.20
18998;DHT22;9632;51.018;4.284;2023-06-10T08:15:00;29.60;99.00
18998;DHT22;9632;51.018;4.284;2023-06-10T08:17:26;29.50;99.40
18998;DHT22;9632;51.018;4.284;2023-06-10T08:19:52;29.50;98.90
18998;DHT22;9632;51.018;4.284;2023-06-10T08:22:18;29.60;98.90
18998;DHT22;9632;51.018;4.284;2023-06-10T08:24:43;29.60;97.80
18998;DHT22;9632;51.018;4.284;2023-06-10T08:27:09;29.70;97.40
18998;DHT22;9632;51.018;4.284;2023-06-10T08:29:36;29.80;98.50
18998;DHT22;9632;51.018;4.284;2023-06-10T08:32:02;29.90;97.70
18998;DHT22;9632;51.018;4.284;2023-06-10T08:34:28;30.10;97.20
18998;DHT22;9632;51.018;4.284;2023-06-10T08:36:53;30.20;96.50
18998;DHT22;9632;51.018;4.284;2023-06-10T08:39:21;30.30;95.50
18998;DHT22;9632;51.018;4.284;2023-06-10T08:42:09;30.30;95.60
18998;DHT22;9632;51.018;4.284;2023-06-10T08:44:36;30.20;95.10
18998;DHT22;9632;51.018;4.284;2023-06-10T08:47:08;30.20;96.00
18998;DHT22;9632;51.018;4.284;2023-06-10T08:49:43;30.30;96.30
18998;DHT22;9632;51.018;4.284;2023-06-10T08:52:14;30.50;95.60
18998;DHT22;9632;51.018;4.284;2023-06-10T08:55:04;30.60;94.10
18998;DHT22;9632;51.018;4.284;2023-06-10T08:57:30;30.70;95.10
18998;DHT22;9632;51.018;4.284;2023-06-10T08:59:57;30.80;93.40
18998;DHT22;9632;51.018;4.284;2023-06-10T09:02:24;30.90;94.40
18998;DHT22;9632;51.018;4.284;2023-06-10T09:04:50;30.90;93.50
18998;DHT22;9632;51.018;4.284;2023-06-10T09:07:17;31.10;93.30
18998;DHT22;9632;51.018;4.284;2023-06-10T09:09:44;31.10;92.10
18998;DHT22;9632;51.018;4.284;2023-06-10T09:12:10;31.10;92.10
18998;DHT22;9632;51.018;4.284;2023-06-10T09:14:37;31.30;93.70
18998;DHT22;9632;51.018;4.284;2023-06-10T09:17:03;31.40;92.90
18998;DHT22;9632;51.018;4.284;2023-06-10T09:19:30;31.40;92.20
18998;DHT22;9632;51.018;4.284;2023-06-10T09:21:56;31.40;90.80
18998;DHT22;9632;51.018;4.284;2023-06-10T09:24:25;31.50;90.00
18998;DHT22;9632;51.018;4.284;2023-06-10T09:27:02;31.50;89.30
18998;DHT22;9632;51.018;4.284;2023-06-10T09:29:28;31.50;90.90
18998;DHT22;9632;51.018;4.284;2023-06-10T09:31:54;31.50;91.20
18998;DHT22;9632;51.018;4.284;2023-06-10T09:34:24;31.50;88.70
18998;DHT22;9632;51.018;4.284;2023-06-10T09:36:50;31.40;88.50
18998;DHT22;9632;51.018;4.284;2023-06-10T09:39:19;31.40;85.10
18998;DHT22;9632;51.018;4.284;2023-06-10T09:41:45;31.40;89.10
18998;DHT22;9632;51.018;4.284;2023-06-10T09:44:19;31.50;87.20
18998;DHT22;9632;51.018;4.284;2023-06-10T09:46:46;31.60;86.50
18998;DHT22;9632;51.018;4.284;2023-06-10T09:49:12;31.70;88.50
18998;DHT22;9632;51.018;4.284;2023-06-10T09:51:52;31.90;86.50
18998;DHT22;9632;51.018;4.284;2023-06-10T09:54:18;32.00;85.60
18998;DHT22;9632;51.018;4.284;2023-06-10T09:56:47;32.10;82.30
18998;DHT22;9632;51.018;4.284;2023-06-10T09:59:13;32.30;85.30
18998;DHT22;9632;51.018;4.284;2023-06-10T10:01:39;32.40;86.80
18998;DHT22;9632;51.018;4.284;2023-06-10T10:04:04;32.40;85.30
18998;DHT22;9632;51.018;4.284;2023-06-10T10:06:30;32.60;85.40
18998;DHT22;9632;51.018;4.284;2023-06-10T10:08:56;32.60;82.60
18998;DHT22;9632;51.018;4.284;2023-06-10T10:11:23;32.70;79.30
18998;DHT22;9632;51.018;4.284;2023-06-10T10:13:50;32.70;79.90
18998;DHT22;9632;51.018;4.284;2023-06-10T10:16:19;32.70;79.70
18998;DHT22;9632;51.018;4.284;2023-06-10T10:18:54;32.70;81.10
18998;DHT22;9632;51.018;4.284;2023-06-10T10:21:26;32.80;79.90
18998;DHT22;9632;51.018;4.284;2023-06-10T10:27:11;32.90;78.70
18998;DHT22;9632;51.018;4.284;2023-06-10T10:29:39;33.00;78.00
18998;DHT22;9632;51.018;4.284;2023-06-10T10:32:06;32.90;76.70
18998;DHT22;9632;51.018;4.284;2023-06-10T10:37:05;33.00;75.10
18998;DHT22;9632;51.018;4.284;2023-06-10T10:39:33;33.10;76.60
18998;DHT22;9632;51.018;4.284;2023-06-10T10:42:00;33.20;72.80
18998;DHT22;9632;51.018;4.284;2023-06-10T10:44:26;33.10;72.10
18998;DHT22;9632;51.018;4.284;2023-06-10T10:46:53;33.10;71.70
18998;DHT22;9632;51.018;4.284;2023-06-10T10:49:20;33.20;72.60
18998;DHT22;9632;51.018;4.284;2023-06-10T10:52:01;33.10;71.30
18998;DHT22;9632;51.018;4.284;2023-06-10T10:54:35;33.10;71.30
18998;DHT22;9632;51.018;4.284;2023-06-10T10:59:56;33.10;70.60
18998;DHT22;9632;51.018;4.284;2023-06-10T11:02:41;33.10;71.20
18998;DHT22;9632;51.018;4.284;2023-06-10T11:05:14;33.00;71.80
18998;DHT22;9632;51.018;4.284;2023-06-10T11:07:40;33.00;69.70
18998;DHT22;9632;51.018;4.284;2023-06-10T11:10:11;32.90;70.70
18998;DHT22;9632;51.018;4.284;2023-06-10T11:15:12;32.90;70.00
18998;DHT22;9632;51.018;4.284;2023-06-10T11:28:40;33.20;67.70
18998;DHT22;9632;51.018;4.284;2023-06-10T11:31:05;33.00;67.20
18998;DHT22;9632;51.018;4.284;2023-06-10T11:33:31;33.00;65.30
18998;DHT22;9632;51.018;4.284;2023-06-10T11:35:58;33.00;66.20
18998;DHT22;9632;51.018;4.284;2023-06-10T11:38:26;33.00;67.90
18998;DHT22;9632;51.018;4.284;2023-06-10T11:40:53;33.00;66.10
18998;DHT22;9632;51.018;4.284;2023-06-10T11:43:19;32.90;67.30
18998;DHT22;9632;51.018;4.284;2023-06-10T11:45:46;32.90;67.20
18998;DHT22;9632;51.018;4.284;2023-06-10T11:48:12;32.90;67.90
18998;DHT22;9632;51.018;4.284;2023-06-10T11:50:38;33.00;69.80
18998;DHT22;9632;51.018;4.284;2023-06-10T11:53:05;33.00;68.50
18998;DHT22;9632;51.018;4.284;2023-06-10T11:55:45;33.10;65.90
18998;DHT22;9632;51.018;4.284;2023-06-10T11:58:18;33.20;67.60
18998;DHT22;9632;51.018;4.284;2023-06-10T12:00:48;33.20;65.90
18998;DHT22;9632;51.018;4.284;2023-06-10T12:03:15;33.10;66.70
18998;DHT22;9632;51.018;4.284;2023-06-10T12:05:40;33.00;66.30
18998;DHT22;9632;51.018;4.284;2023-06-10T12:08:18;33.10;67.60
18998;DHT22;9632;51.018;4.284;2023-06-10T12:10:44;33.10;66.00
18998;DHT22;9632;51.018;4.284;2023-06-10T12:13:10;32.90;64.30
18998;DHT22;9632;51.018;4.284;2023-06-10T12:15:35;32.80;65.20
18998;DHT22;9632;51.018;4.284;2023-06-10T12:18:02;32.70;65.40
18998;DHT22;9632;51.018;4.284;2023-06-10T12:20:30;32.80;67.20
18998;DHT22;9632;51.018;4.284;2023-06-10T12:22:57;32.90;64.30
18998;DHT22;9632;51.018;4.284;2023-06-10T12:25:28;32.90;63.50
18998;DHT22;9632;51.018;4.284;2023-06-10T12:27:56;32.90;64.10
18998;DHT22;9632;51.018;4.284;2023-06-10T12:30:25;33.00;65.60
18998;DHT22;9632;51.018;4.284;2023-06-10T12:32:52;32.90;65.00
18998;DHT22;9632;51.018;4.284;2023-06-10T12:35:20;32.80;65.90
18998;DHT22;9632;51.018;4.284;2023-06-10T12:40:33;33.00;66.00
18998;DHT22;9632;51.018;4.284;2023-06-10T12:42:59;33.10;61.60
18998;DHT22;9632;51.018;4.284;2023-06-10T12:45:29;33.20;65.00
18998;DHT22;9632;51.018;4.284;2023-06-10T12:48:05;33.20;64.30
18998;DHT22;9632;51.018;4.284;2023-06-10T12:50:32;33.30;63.10
18998;DHT22;9632;51.018;4.284;2023-06-10T12:52:59;33.40;62.60
18998;DHT22;9632;51.018;4.284;2023-06-10T12:55:25;33.40;62.90
18998;DHT22;9632;51.018;4.284;2023-06-10T12:57:51;33.40;63.20
18998;DHT22;9632;51.018;4.284;2023-06-10T13:00:18;33.40;62.60
18998;DHT22;9632;51.018;4.284;2023-06-10T13:02:44;33.50;62.20
18998;DHT22;9632;51.018;4.284;2023-06-10T13:05:09;33.40;62.20
18998;DHT22;9632;51.018;4.284;2023-06-10T13:07:35;33.40;61.10
18998;DHT22;9632;51.018;4.284;2023-06-10T13:10:00;33.50;63.50
18998;DHT22;9632;51.018;4.284;2023-06-10T13:12:27;33.50;60.50
18998;DHT22;9632;51.018;4.284;2023-06-10T13:14:56;33.60;62.90
18998;DHT22;9632;51.018;4.284;2023-06-10T13:17:21;33.60;61.50
18998;DHT22;9632;51.018;4.284;2023-06-10T13:19:47;33.60;61.00
18998;DHT22;9632;51.018;4.284;2023-06-10T13:22:14;33.70;60.50
18998;DHT22;9632;51.018;4.284;2023-06-10T13:24:40;33.60;60.70
18998;DHT22;9632;51.018;4.284;2023-06-10T13:27:06;33.60;59.30
18998;DHT22;9632;51.018;4.284;2023-06-10T13:29:32;33.50;60.80
18998;DHT22;9632;51.018;4.284;2023-06-10T13:31:58;33.60;60.00
18998;DHT22;9632;51.018;4.284;2023-06-10T13:34:23;33.60;59.80
18998;DHT22;9632;51.018;4.284;2023-06-10T13:36:49;33.60;59.10
18998;DHT22;9632;51.018;4.284;2023-06-10T13:39:15;33.60;58.60
18998;DHT22;9632;51.018;4.284;2023-06-10T13:41:41;33.50;57.40
18998;DHT22;9632;51.018;4.284;2023-06-10T13:44:07;33.40;57.70
18998;DHT22;9632;51.018;4.284;2023-06-10T13:46:33;33.30;57.90
18998;DHT22;9632;51.018;4.284;2023-06-10T13:48:58;33.30;57.90
18998;DHT22;9632;51.018;4.284;2023-06-10T13:51:24;33.30;59.20
18998;DHT22;9632;51.018;4.284;2023-06-10T13:53:50;33.30;58.60
18998;DHT22;9632;51.018;4.284;2023-06-10T13:56:17;33.20;59.70
18998;DHT22;9632;51.018;4.284;2023-06-10T13:58:43;33.20;59.00
18998;DHT22;9632;51.018;4.284;2023-06-10T14:01:09;33.20;60.50
18998;DHT22;9632;51.018;4.284;2023-06-10T14:03:35;33.20;58.70
18998;DHT22;9632;51.018;4.284;2023-06-10T14:06:01;33.20;59.00
18998;DHT22;9632;51.018;4.284;2023-06-10T14:08:27;33.20;58.70
18998;DHT22;9632;51.018;4.284;2023-06-10T14:10:53;33.20;57.60
18998;DHT22;9632;51.018;4.284;2023-06-10T14:13:18;33.20;58.20
18998;DHT22;9632;51.018;4.284;2023-06-10T14:15:44;33.20;59.40
18998;DHT22;9632;51.018;4.284;2023-06-10T14:18:11;33.30;58.80
18998;DHT22;9632;51.018;4.284;2023-06-10T14:20:42;33.20;59.10
18998;DHT22;9632;51.018;4.284;2023-06-10T14:23:08;33.20;57.90
18998;DHT22;9632;51.018;4.284;2023-06-10T14:25:33;33.10;56.20
18998;DHT22;9632;51.018;4.284;2023-06-10T14:27:59;33.00;57.20
18998;DHT22;9632;51.018;4.284;2023-06-10T14:30:25;33.00;58.90
18998;DHT22;9632;51.018;4.284;2023-06-10T14:32:50;33.00;57.60
18998;DHT22;9632;51.018;4.284;2023-06-10T14:35:16;33.10;58.70
18998;DHT22;9632;51.018;4.284;2023-06-10T14:37:42;33.00;59.30
18998;DHT22;9632;51.018;4.284;2023-06-10T14:40:08;33.00;59.80
18998;DHT22;9632;51.018;4.284;2023-06-10T14:42:33;32.90;58.90
18998;DHT22;9632;51.018;4.284;2023-06-10T14:44:59;32.90;59.00
18998;DHT22;9632;51.018;4.284;2023-06-10T14:47:25;32.80;58.70
18998;DHT22;9632;51.018;4.284;2023-06-10T14:49:51;32.80;57.90
18998;DHT22;9632;51.018;4.284;2023-06-10T14:52:17;32.80;57.50
18998;DHT22;9632;51.018;4.284;2023-06-10T14:54:42;32.80;59.40
18998;DHT22;9632;51.018;4.284;2023-06-10T14:57:08;32.80;59.10
18998;DHT22;9632;51.018;4.284;2023-06-10T14:59:34;32.90;58.00
18998;DHT22;9632;51.018;4.284;2023-06-10T15:02:00;32.90;59.70
18998;DHT22;9632;51.018;4.284;2023-06-10T15:04:28;32.90;57.30
18998;DHT22;9632;51.018;4.284;2023-06-10T15:06:54;32.80;57.90
18998;DHT22;9632;51.018;4.284;2023-06-10T15:09:20;32.90;58.40
18998;DHT22;9632;51.018;4.284;2023-06-10T15:11:46;32.80;59.40
18998;DHT22;9632;51.018;4.284;2023-06-10T15:14:11;32.70;55.80
18998;DHT22;9632;51.018;4.284;2023-06-10T15:16:37;32.70;58.30
18998;DHT22;9632;51.018;4.284;2023-06-10T15:19:02;32.70;57.50
18998;DHT22;9632;51.018;4.284;2023-06-10T15:21:28;32.70;58.50
18998;DHT22;9632;51.018;4.284;2023-06-10T15:23:54;32.70;58.90
18998;DHT22;9632;51.018;4.284;2023-06-10T15:26:19;32.70;57.60
18998;DHT22;9632;51.018;4.284;2023-06-10T15:28:45;32.70;58.60
18998;DHT22;9632;51.018;4.284;2023-06-10T15:31:11;32.70;58.80
18998;DHT22;9632;51.018;4.284;2023-06-10T15:33:37;32.70;59.20
18998;DHT22;9632;51.018;4.284;2023-06-10T15:36:03;32.70;58.00
18998;DHT22;9632;51.018;4.284;2023-06-10T15:38:30;32.60;59.40
18998;DHT22;9632;51.018;4.284;2023-06-10T15:40:55;32.70;61.20
18998;DHT22;9632;51.018;4.284;2023-06-10T15:43:21;32.70;58.00
18998;DHT22;9632;51.018;4.284;2023-06-10T15:45:47;32.60;58.80
18998;DHT22;9632;51.018;4.284;2023-06-10T15:48:12;32.70;59.10
18998;DHT22;9632;51.018;4.284;2023-06-10T15:50:38;32.60;58.90
18998;DHT22;9632;51.018;4.284;2023-06-10T15:53:03;32.60;58.90
18998;DHT22;9632;51.018;4.284;2023-06-10T15:55:29;32.60;58.50
18998;DHT22;9632;51.018;4.284;2023-06-10T15:57:55;32.60;58.20
18998;DHT22;9632;51.018;4.284;2023-06-10T16:00:22;32.60;57.20
18998;DHT22;9632;51.018;4.284;2023-06-10T16:02:48;32.60;57.90
18998;DHT22;9632;51.018;4.284;2023-06-10T16:05:14;32.60;56.20
18998;DHT22;9632;51.018;4.284;2023-06-10T16:07:39;32.50;56.00
18998;DHT22;9632;51.018;4.284;2023-06-10T16:10:06;32.50;56.70
18998;DHT22;9632;51.018;4.284;2023-06-10T16:12:32;32.50;57.20